createdAt,value
2016-12-24T00:01:45.936Z,1026.076
2016-12-24T00:04:39.434Z,1026.047
2016-12-24T00:10:26.470Z,1025.847
2016-12-24T00:13:20.004Z,1025.849
2016-12-24T00:16:13.372Z,1025.810
2016-12-24T00:22:00.508Z,1025.679
2016-12-24T00:24:54.026Z,1025.606
2016-12-24T00:27:47.626Z,1025.542
2016-12-24T00:36:28.374Z,1025.377
2016-12-24T00:39:21.966Z,1025.289
2016-12-24T00:42:15.562Z,1025.218
2016-12-24T00:45:09.191Z,1025.121
2016-12-24T00:50:56.309Z,1025.151
2016-12-24T00:53:49.833Z,1025.266
2016-12-24T00:56:43.319Z,1025.070
2016-12-24T00:59:37.077Z,1024.987
2016-12-24T01:02:30.439Z,1025.033
2016-12-24T01:05:23.976Z,1024.766
2016-12-24T01:08:17.713Z,1024.647
2016-12-24T01:11:11.257Z,1024.747
2016-12-24T01:14:04.843Z,1024.702
2016-12-24T01:16:58.397Z,1024.638
2016-12-24T01:19:52.034Z,1024.775
2016-12-24T01:22:45.423Z,1024.687
2016-12-24T01:25:38.900Z,1024.637
2016-12-24T01:31:26.042Z,1024.528
2016-12-24T01:37:13.104Z,1024.487
2016-12-24T01:40:06.694Z,1024.659
2016-12-24T01:43:00.224Z,1024.657
2016-12-24T01:45:53.839Z,1024.497
2016-12-24T01:48:47.318Z,1024.327
2016-12-24T01:54:34.341Z,1024.298
2016-12-24T02:00:22.285Z,1024.048
2016-12-24T02:11:56.629Z,1024.159
2016-12-24T02:14:50.077Z,1024.081
2016-12-24T02:20:37.330Z,1024.164
2016-12-24T02:23:30.942Z,1024.067
2016-12-24T02:26:24.438Z,1023.936
2016-12-24T02:29:18.063Z,1023.843
2016-12-24T02:32:11.587Z,1023.700
2016-12-24T02:37:58.813Z,1023.686
2016-12-24T02:40:52.230Z,1023.489
2016-12-24T02:46:39.364Z,1023.563
2016-12-24T02:49:32.925Z,1023.482
2016-12-24T02:58:13.760Z,1023.396
2016-12-24T03:04:00.903Z,1023.270
2016-12-24T03:06:54.556Z,1023.252
2016-12-24T03:09:48.160Z,1023.187
2016-12-24T03:15:35.350Z,1023.212
2016-12-24T03:27:09.888Z,1023.170
2016-12-24T03:30:03.495Z,1023.135
2016-12-24T03:32:57.146Z,1022.985
2016-12-24T03:35:50.728Z,1022.958
2016-12-24T03:41:37.978Z,1022.973
2016-12-24T03:44:31.630Z,1022.927
2016-12-24T03:50:18.992Z,1022.814
2016-12-24T03:53:12.626Z,1022.792
2016-12-24T03:56:06.333Z,1022.754
2016-12-24T04:01:53.734Z,1022.628
2016-12-24T04:07:41.513Z,1022.526
2016-12-24T04:13:28.835Z,1022.423
2016-12-24T04:16:22.390Z,1022.362
2016-12-24T04:22:09.619Z,1022.347
2016-12-24T04:25:03.086Z,1022.329
2016-12-24T04:27:56.794Z,1022.331
2016-12-24T04:30:50.558Z,1022.291
2016-12-24T04:33:44.173Z,1022.376
2016-12-24T04:36:37.834Z,1022.235
2016-12-24T04:42:25.052Z,1022.258
2016-12-24T04:45:18.820Z,1022.207
2016-12-24T04:48:13.427Z,1022.178
2016-12-24T04:51:06.169Z,1022.082
2016-12-24T04:56:53.325Z,1022.030
2016-12-24T04:59:46.966Z,1022.027
2016-12-24T05:02:40.666Z,1022.028
2016-12-24T05:05:34.405Z,1022.064
2016-12-24T05:08:28.647Z,1022.030
2016-12-24T05:14:15.959Z,1021.954
2016-12-24T05:22:57.016Z,1022.112
2016-12-24T05:25:50.543Z,1022.117
2016-12-24T05:28:45.302Z,1022.009
2016-12-24T05:34:31.646Z,1022.031
2016-12-24T05:37:25.204Z,1022.011
2016-12-24T05:40:18.741Z,1022.017
2016-12-24T05:43:12.415Z,1022.014
2016-12-24T05:46:06.037Z,1022.040
2016-12-24T06:00:35.107Z,1022.019
2016-12-24T06:03:28.888Z,1021.953
2016-12-24T06:06:22.635Z,1021.956
2016-12-24T06:09:16.280Z,1021.940
2016-12-24T06:12:09.887Z,1021.948
2016-12-24T06:15:03.524Z,1021.902
2016-12-24T06:17:57.210Z,1021.935
2016-12-24T06:20:50.948Z,1021.936
2016-12-24T06:23:44.638Z,1021.966
2016-12-24T06:26:38.367Z,1021.965
2016-12-24T06:29:31.978Z,1021.931
2016-12-24T06:32:25.610Z,1021.909
2016-12-24T06:35:19.266Z,1021.930
2016-12-24T06:38:12.980Z,1021.922
2016-12-24T06:41:06.677Z,1021.977
2016-12-24T06:44:00.311Z,1021.975
2016-12-24T06:52:41.330Z,1021.810
2016-12-24T06:55:35.053Z,1021.744
2016-12-24T06:58:28.990Z,1021.765
2016-12-24T07:01:22.671Z,1021.821
2016-12-24T07:07:10.058Z,1021.937
2016-12-24T07:10:03.723Z,1021.990
2016-12-24T07:12:57.487Z,1022.045
2016-12-24T07:18:44.937Z,1022.136
2016-12-24T07:21:38.717Z,1022.098
2016-12-24T07:27:26.055Z,1022.115
2016-12-24T07:30:19.808Z,1022.040
2016-12-24T07:33:13.529Z,1022.071
2016-12-24T07:36:07.339Z,1022.068
2016-12-24T07:39:00.993Z,1022.030
2016-12-24T07:41:54.716Z,1022.087
2016-12-24T07:44:48.390Z,1022.067
2016-12-24T07:47:42.151Z,1022.079
2016-12-24T07:53:29.698Z,1022.189
2016-12-24T07:56:23.514Z,1022.182
2016-12-24T08:02:10.883Z,1022.163
2016-12-24T08:05:04.582Z,1022.178
2016-12-24T08:10:51.977Z,1022.129
2016-12-24T08:13:46.566Z,1022.211
2016-12-24T08:19:33.039Z,1022.183
2016-12-24T08:25:20.562Z,1022.107
2016-12-24T08:28:14.249Z,1022.107
2016-12-24T08:31:07.963Z,1021.984
2016-12-24T08:36:55.603Z,1021.969
2016-12-24T08:39:49.244Z,1021.923
2016-12-24T08:42:43.096Z,1022.067
2016-12-24T08:45:36.842Z,1022.097
2016-12-24T08:48:30.416Z,1022.106
2016-12-24T08:54:17.940Z,1022.149
2016-12-24T08:57:11.575Z,1022.110
2016-12-24T09:00:05.281Z,1022.147
2016-12-24T09:02:59.259Z,1022.158
2016-12-24T09:08:46.679Z,1022.017
2016-12-24T09:17:28.034Z,1021.911
2016-12-24T09:26:09.529Z,1021.817
2016-12-24T09:29:03.335Z,1021.785
2016-12-24T09:31:57.079Z,1021.715
2016-12-24T09:37:44.659Z,1021.612
2016-12-24T09:40:38.529Z,1021.587
2016-12-24T09:43:32.255Z,1021.564
2016-12-24T09:46:26.136Z,1021.493
2016-12-24T09:49:19.991Z,1021.574
2016-12-24T09:52:13.754Z,1021.619
2016-12-24T09:55:07.509Z,1021.647
2016-12-24T09:58:01.315Z,1021.631
2016-12-24T10:00:55.214Z,1021.681
2016-12-24T10:03:48.996Z,1021.645
2016-12-24T10:06:42.689Z,1021.649
2016-12-24T10:09:36.473Z,1021.589
2016-12-24T10:12:30.340Z,1021.598
2016-12-24T10:15:24.231Z,1021.577
2016-12-24T10:18:18.028Z,1021.590
2016-12-24T10:21:11.908Z,1021.615
2016-12-24T10:29:53.206Z,1021.507
2016-12-24T10:35:40.856Z,1021.435
2016-12-24T10:44:22.383Z,1021.370
2016-12-24T10:47:16.173Z,1021.276
2016-12-24T10:50:10.136Z,1021.245
2016-12-24T10:53:04.241Z,1021.225
2016-12-24T10:55:58.001Z,1021.204
2016-12-24T11:04:39.661Z,1021.054
2016-12-24T11:07:33.284Z,1021.022
2016-12-24T11:10:27.136Z,1021.022
2016-12-24T11:13:20.991Z,1020.975
2016-12-24T11:16:14.819Z,1020.926
2016-12-24T11:19:08.758Z,1020.860
2016-12-24T11:22:02.721Z,1020.845
2016-12-24T11:27:50.444Z,1020.836
2016-12-24T11:30:44.259Z,1020.763
2016-12-24T11:33:38.162Z,1020.792
2016-12-24T11:36:32.073Z,1020.689
2016-12-24T11:45:13.674Z,1020.781
2016-12-24T11:48:07.509Z,1020.810
2016-12-24T11:51:01.389Z,1020.806
2016-12-24T11:53:55.243Z,1020.790
2016-12-24T11:56:49.644Z,1020.802
2016-12-24T11:59:43.454Z,1020.789
2016-12-24T12:05:31.218Z,1020.644
2016-12-24T12:08:24.886Z,1020.667
2016-12-24T12:11:18.728Z,1020.687
2016-12-24T12:14:12.624Z,1020.631
2016-12-24T12:17:06.416Z,1020.678
2016-12-24T12:31:35.972Z,1020.339
2016-12-24T12:34:29.932Z,1020.347
2016-12-24T12:40:17.652Z,1020.338
2016-12-24T12:43:11.547Z,1020.385
2016-12-24T12:46:05.398Z,1020.307
2016-12-24T12:51:53.095Z,1020.245
2016-12-24T12:54:46.936Z,1020.278
2016-12-24T12:57:41.096Z,1020.313
2016-12-24T13:00:34.929Z,1020.306
2016-12-24T13:03:29.108Z,1020.389
2016-12-24T13:06:23.062Z,1020.356
2016-12-24T13:09:17.002Z,1020.238
2016-12-24T13:12:10.770Z,1020.193
2016-12-24T13:15:04.761Z,1020.222
2016-12-24T13:20:52.638Z,1020.141
2016-12-24T13:23:46.462Z,1020.081
2016-12-24T13:32:28.200Z,1020.173
2016-12-24T13:38:16.045Z,1020.078
2016-12-24T13:41:09.927Z,1020.002
2016-12-24T13:44:03.778Z,1020.006
2016-12-24T13:46:57.582Z,1019.925
2016-12-24T13:49:51.411Z,1019.928
2016-12-24T13:52:45.552Z,1020.009
2016-12-24T13:55:39.420Z,1020.063
2016-12-24T14:01:27.053Z,1019.971
2016-12-24T14:04:20.906Z,1020.030
2016-12-24T14:07:14.835Z,1019.965
2016-12-24T14:13:02.576Z,1019.967
2016-12-24T14:15:56.431Z,1019.847
2016-12-24T14:24:38.050Z,1019.835
2016-12-24T14:27:31.972Z,1019.790
2016-12-24T14:30:25.674Z,1019.741
2016-12-24T14:33:19.491Z,1019.648
2016-12-24T14:42:01.085Z,1019.610
2016-12-24T14:44:55.107Z,1019.668
2016-12-24T14:47:48.958Z,1019.631
2016-12-24T14:50:42.754Z,1019.642
2016-12-24T14:53:36.765Z,1019.682
2016-12-24T14:56:30.644Z,1019.653
2016-12-24T14:59:24.690Z,1019.627
2016-12-24T15:05:12.550Z,1019.578
2016-12-24T15:08:06.393Z,1019.586
2016-12-24T15:11:00.336Z,1019.575
2016-12-24T15:13:54.529Z,1019.612
2016-12-24T15:16:48.271Z,1019.631
2016-12-24T15:19:42.040Z,1019.631
2016-12-24T15:22:35.918Z,1019.664
2016-12-24T15:28:23.640Z,1019.619
2016-12-24T15:34:11.358Z,1019.621
2016-12-24T15:39:58.985Z,1019.529
2016-12-24T15:42:52.781Z,1019.561
2016-12-24T15:45:46.594Z,1019.537
2016-12-24T15:48:40.538Z,1019.552
2016-12-24T15:54:28.592Z,1019.555
2016-12-24T15:57:22.515Z,1019.597
2016-12-24T16:03:10.365Z,1019.528
2016-12-24T16:06:04.308Z,1019.496
2016-12-24T16:08:58.165Z,1019.425
2016-12-24T16:11:52.000Z,1019.361
2016-12-24T16:14:46.267Z,1019.350
2016-12-24T16:20:34.106Z,1019.396
2016-12-24T16:23:27.937Z,1019.365
2016-12-24T16:26:21.803Z,1019.389
2016-12-24T16:29:15.748Z,1019.365
2016-12-24T16:32:09.521Z,1019.374
2016-12-24T16:37:57.235Z,1019.226
2016-12-24T16:40:51.004Z,1019.174
2016-12-24T16:43:44.803Z,1019.188
2016-12-24T16:46:38.649Z,1019.109
2016-12-24T16:49:32.477Z,1019.026
2016-12-24T16:52:26.437Z,1019.146
2016-12-24T16:55:20.269Z,1019.180
2016-12-24T16:58:14.159Z,1019.180
2016-12-24T17:04:01.888Z,1019.266
2016-12-24T17:06:55.890Z,1019.355
2016-12-24T17:12:43.520Z,1019.384
2016-12-24T17:15:37.394Z,1019.437
2016-12-24T17:18:31.730Z,1019.464
2016-12-24T17:24:19.475Z,1019.469
2016-12-24T17:27:13.374Z,1019.474
2016-12-24T17:35:54.678Z,1019.435
2016-12-24T17:38:48.526Z,1019.421
2016-12-24T17:50:23.985Z,1019.536
2016-12-24T17:53:17.911Z,1019.627
2016-12-24T17:56:11.714Z,1019.647
2016-12-24T17:59:05.537Z,1019.664
2016-12-24T18:01:59.385Z,1019.701
2016-12-24T18:04:53.255Z,1019.739
2016-12-24T18:07:47.107Z,1019.756
2016-12-24T18:10:40.916Z,1019.721
2016-12-24T18:13:34.806Z,1019.772
2016-12-24T18:22:16.563Z,1019.698
2016-12-24T18:28:04.134Z,1019.776
2016-12-24T18:30:57.962Z,1019.680
2016-12-24T18:36:45.969Z,1019.802
2016-12-24T18:39:39.694Z,1019.773
2016-12-24T18:42:33.540Z,1019.752
2016-12-24T18:45:27.339Z,1019.757
2016-12-24T18:48:21.139Z,1019.821
2016-12-24T18:54:08.835Z,1019.842
2016-12-24T18:57:02.733Z,1019.764
2016-12-24T18:59:56.530Z,1019.787
2016-12-24T19:02:50.403Z,1019.735
2016-12-24T19:05:44.308Z,1019.708
2016-12-24T19:08:38.091Z,1019.704
2016-12-24T19:11:31.912Z,1019.719
2016-12-24T19:14:25.989Z,1019.724
2016-12-24T19:17:19.913Z,1019.653
2016-12-24T19:20:13.770Z,1019.588
2016-12-24T19:23:07.698Z,1019.563
2016-12-24T19:26:01.456Z,1019.534
2016-12-24T19:31:49.288Z,1019.414
2016-12-24T19:34:43.041Z,1019.407
2016-12-24T19:37:36.907Z,1019.396
2016-12-24T19:40:30.811Z,1019.409
2016-12-24T19:46:18.462Z,1019.276
2016-12-24T19:49:12.279Z,1019.300
2016-12-24T19:52:06.029Z,1019.179
2016-12-24T19:54:59.772Z,1019.174
2016-12-24T20:00:47.526Z,1019.057
2016-12-24T20:03:41.382Z,1019.005
2016-12-24T20:09:29.101Z,1019.084
2016-12-24T20:12:22.988Z,1019.075
2016-12-24T20:15:16.778Z,1019.120
2016-12-24T20:18:10.669Z,1019.052
2016-12-24T20:21:05.011Z,1019.026
2016-12-24T20:23:58.935Z,1019.176
2016-12-24T20:26:52.764Z,1019.197
2016-12-24T20:32:40.475Z,1019.172
2016-12-24T20:41:22.155Z,1019.074
2016-12-24T20:44:15.921Z,1019.063
2016-12-24T20:47:09.722Z,1019.052
2016-12-24T20:50:03.582Z,1018.844
2016-12-24T20:52:57.399Z,1018.902
2016-12-24T20:55:51.267Z,1018.842
2016-12-24T21:01:39.116Z,1018.883
2016-12-24T21:04:32.892Z,1018.892
2016-12-24T21:07:26.768Z,1018.884
2016-12-24T21:13:14.659Z,1018.788
2016-12-24T21:16:08.585Z,1018.769
2016-12-24T21:19:02.428Z,1018.832
2016-12-24T21:21:56.350Z,1018.718
2016-12-24T21:24:50.266Z,1018.582
2016-12-24T21:27:44.156Z,1018.592
2016-12-24T21:30:37.987Z,1018.533
2016-12-24T21:33:31.786Z,1018.527
2016-12-24T21:36:25.604Z,1018.519
2016-12-24T21:39:19.945Z,1018.529
2016-12-24T21:42:13.845Z,1018.517
2016-12-24T21:48:01.998Z,1018.481
2016-12-24T21:53:49.765Z,1018.324
2016-12-24T21:56:43.720Z,1018.258
2016-12-24T21:59:37.344Z,1018.337
2016-12-24T22:02:31.272Z,1018.229
2016-12-24T22:05:25.069Z,1018.238
2016-12-24T22:08:18.854Z,1018.145
2016-12-24T22:11:12.599Z,1018.150
2016-12-24T22:19:53.897Z,1018.172
2016-12-24T22:22:47.633Z,1018.200
2016-12-24T22:25:41.472Z,1018.071
2016-12-24T22:28:35.226Z,1017.938
2016-12-24T22:34:22.997Z,1017.925
2016-12-24T22:37:16.622Z,1017.853
2016-12-24T22:40:10.308Z,1017.902
2016-12-24T22:43:04.108Z,1017.847
2016-12-24T22:48:51.665Z,1017.776
2016-12-24T22:54:39.303Z,1017.592
2016-12-24T22:57:33.114Z,1017.598
2016-12-24T23:00:26.872Z,1017.592
2016-12-24T23:06:14.467Z,1017.592
2016-12-24T23:09:08.322Z,1017.454
2016-12-24T23:14:56.313Z,1017.404
2016-12-24T23:17:50.037Z,1017.256
2016-12-24T23:20:43.812Z,1017.178
2016-12-24T23:23:37.635Z,1017.224
2016-12-24T23:29:25.259Z,1017.105
2016-12-24T23:32:19.050Z,1017.030
2016-12-24T23:41:00.595Z,1016.843
2016-12-24T23:43:54.431Z,1016.762
2016-12-24T23:52:36.085Z,1016.694
2016-12-24T23:55:29.999Z,1016.670
2016-12-24T23:58:23.838Z,1016.600
